sensor_id;sensor_type;location;lat;lon;timestamp;P1;durP1;ratioP1;P2;durP2;ratioP2
52035;SDS011;38046;49.448;32.074;2023-05-10T00:00:23;3.00;;;2.40;;
52035;SDS011;38046;49.448;32.074;2023-05-10T00:02:49;2.65;;;2.33;;
52035;SDS011;38046;49.448;32.074;2023-05-10T00:05:15;3.80;;;2.30;;
52035;SDS011;38046;49.448;32.074;2023-05-10T00:07:40;2.85;;;2.47;;
52035;SDS011;38046;49.448;32.074;2023-05-10T00:10:09;2.28;;;2.08;;
52035;SDS011;38046;49.448;32.074;2023-05-10T00:12:35;4.05;;;2.38;;
52035;SDS011;38046;49.448;32.074;2023-05-10T00:15:01;2.45;;;2.20;;
52035;SDS011;38046;49.448;32.074;2023-05-10T00:17:27;2.50;;;2.30;;
52035;SDS011;38046;49.448;32.074;2023-05-10T00:19:53;2.88;;;2.67;;
52035;SDS011;38046;49.448;32.074;2023-05-10T00:22:19;2.83;;;2.40;;
52035;SDS011;38046;49.448;32.074;2023-05-10T00:24:45;2.08;;;1.98;;
52035;SDS011;38046;49.448;32.074;2023-05-10T00:27:11;3.40;;;2.35;;
52035;SDS011;38046;49.448;32.074;2023-05-10T00:29:36;2.80;;;2.30;;
52035;SDS011;38046;49.448;32.074;2023-05-10T00:32:02;3.22;;;2.55;;
52035;SDS011;38046;49.448;32.074;2023-05-10T00:34:28;2.95;;;2.20;;
52035;SDS011;38046;49.448;32.074;2023-05-10T00:36:53;2.50;;;2.30;;
52035;SDS011;38046;49.448;32.074;2023-05-10T00:39:19;2.42;;;2.25;;
52035;SDS011;38046;49.448;32.074;2023-05-10T00:41:45;2.22;;;2.00;;
52035;SDS011;38046;49.448;32.074;2023-05-10T00:44:11;2.55;;;2.33;;
52035;SDS011;38046;49.448;32.074;2023-05-10T00:46:36;2.35;;;2.15;;
52035;SDS011;38046;49.448;32.074;2023-05-10T00:49:02;2.88;;;2.30;;
52035;SDS011;38046;49.448;32.074;2023-05-10T00:51:28;2.50;;;2.30;;
52035;SDS011;38046;49.448;32.074;2023-05-10T00:53:53;2.78;;;2.47;;
52035;SDS011;38046;49.448;32.074;2023-05-10T00:56:21;2.97;;;2.33;;
52035;SDS011;38046;49.448;32.074;2023-05-10T00:58:48;4.00;;;2.40;;
52035;SDS011;38046;49.448;32.074;2023-05-10T01:01:14;2.35;;;2.15;;
52035;SDS011;38046;49.448;32.074;2023-05-10T01:03:39;2.75;;;2.10;;
52035;SDS011;38046;49.448;32.074;2023-05-10T01:06:05;3.42;;;2.60;;
52035;SDS011;38046;49.448;32.074;2023-05-10T01:08:31;2.45;;;2.25;;
52035;SDS011;38046;49.448;32.074;2023-05-10T01:10:57;2.60;;;2.40;;
52035;SDS011;38046;49.448;32.074;2023-05-10T01:13:33;3.03;;;2.20;;
52035;SDS011;38046;49.448;32.074;2023-05-10T01:16:01;2.80;;;2.50;;
52035;SDS011;38046;49.448;32.074;2023-05-10T01:18:28;2.65;;;2.45;;
52035;SDS011;38046;49.448;32.074;2023-05-10T01:23:50;2.22;;;2.03;;
52035;SDS011;38046;49.448;32.074;2023-05-10T01:37:20;3.30;;;2.40;;
52035;SDS011;38046;49.448;32.074;2023-05-10T01:39:53;4.22;;;2.80;;
52035;SDS011;38046;49.448;32.074;2023-05-10T01:42:29;2.83;;;2.17;;
52035;SDS011;38046;49.448;32.074;2023-05-10T01:47:32;2.30;;;2.10;;
52035;SDS011;38046;49.448;32.074;2023-05-10T01:50:04;2.78;;;2.50;;
52035;SDS011;38046;49.448;32.074;2023-05-10T01:52:41;2.63;;;2.40;;
52035;SDS011;38046;49.448;32.074;2023-05-10T01:55:09;2.28;;;2.08;;
52035;SDS011;38046;49.448;32.074;2023-05-10T01:57:39;2.90;;;2.63;;
52035;SDS011;38046;49.448;32.074;2023-05-10T02:00:09;2.40;;;2.20;;
52035;SDS011;38046;49.448;32.074;2023-05-10T02:02:39;2.88;;;2.38;;
52035;SDS011;38046;49.448;32.074;2023-05-10T02:05:07;2.45;;;2.25;;
52035;SDS011;38046;49.448;32.074;2023-05-10T02:07:35;2.25;;;2.05;;
52035;SDS011;38046;49.448;32.074;2023-05-10T02:10:05;3.10;;;2.53;;
52035;SDS011;38046;49.448;32.074;2023-05-10T02:12:36;2.45;;;2.17;;
52035;SDS011;38046;49.448;32.074;2023-05-10T02:15:06;2.55;;;2.10;;
52035;SDS011;38046;49.448;32.074;2023-05-10T02:17:34;2.67;;;2.47;;
52035;SDS011;38046;49.448;32.074;2023-05-10T02:20:03;2.30;;;2.10;;
52035;SDS011;38046;49.448;32.074;2023-05-10T02:22:31;3.60;;;2.45;;
52035;SDS011;38046;49.448;32.074;2023-05-10T02:24:57;3.42;;;2.38;;
52035;SDS011;38046;49.448;32.074;2023-05-10T02:27:25;2.78;;;2.50;;
52035;SDS011;38046;49.448;32.074;2023-05-10T02:29:53;3.03;;;2.45;;
52035;SDS011;38046;49.448;32.074;2023-05-10T02:32:20;3.50;;;2.55;;
52035;SDS011;38046;49.448;32.074;2023-05-10T02:34:47;2.90;;;2.60;;
52035;SDS011;38046;49.448;32.074;2023-05-10T02:37:17;3.35;;;3.05;;
52035;SDS011;38046;49.448;32.074;2023-05-10T02:39:46;2.75;;;2.50;;
52035;SDS011;38046;49.448;32.074;2023-05-10T02:42:21;2.90;;;2.60;;
52035;SDS011;38046;49.448;32.074;2023-05-10T02:44:51;3.83;;;2.78;;
52035;SDS011;38046;49.448;32.074;2023-05-10T02:47:19;3.22;;;2.90;;
52035;SDS011;38046;49.448;32.074;2023-05-10T02:49:45;3.90;;;2.78;;
52035;SDS011;38046;49.448;32.074;2023-05-10T02:52:11;3.92;;;2.85;;
52035;SDS011;38046;49.448;32.074;2023-05-10T02:54:44;4.35;;;2.95;;
52035;SDS011;38046;49.448;32.074;2023-05-10T02:57:15;4.22;;;3.20;;
52035;SDS011;38046;49.448;32.074;2023-05-10T02:59:45;2.80;;;2.55;;
52035;SDS011;38046;49.448;32.074;2023-05-10T03:02:13;4.00;;;3.13;;
52035;SDS011;38046;49.448;32.074;2023-05-10T03:04:39;5.32;;;3.50;;
52035;SDS011;38046;49.448;32.074;2023-05-10T03:07:05;4.22;;;3.45;;
52035;SDS011;38046;49.448;32.074;2023-05-10T03:09:31;3.83;;;2.92;;
52035;SDS011;38046;49.448;32.074;2023-05-10T03:14:57;4.63;;;3.35;;
52035;SDS011;38046;49.448;32.074;2023-05-10T03:17:41;4.38;;;3.30;;
52035;SDS011;38046;49.448;32.074;2023-05-10T03:20:45;7.93;;;3.90;;
52035;SDS011;38046;49.448;32.074;2023-05-10T03:25:53;4.65;;;3.22;;
52035;SDS011;38046;49.448;32.074;2023-05-10T03:28:20;7.50;;;3.45;;
52035;SDS011;38046;49.448;32.074;2023-05-10T03:30:47;4.35;;;3.60;;
52035;SDS011;38046;49.448;32.074;2023-05-10T03:33:13;4.18;;;3.50;;
52035;SDS011;38046;49.448;32.074;2023-05-10T03:35:39;6.75;;;4.00;;
52035;SDS011;38046;49.448;32.074;2023-05-10T03:38:04;4.95;;;3.83;;
52035;SDS011;38046;49.448;32.074;2023-05-10T03:40:30;4.85;;;3.83;;
52035;SDS011;38046;49.448;32.074;2023-05-10T03:42:57;6.93;;;3.67;;
52035;SDS011;38046;49.448;32.074;2023-05-10T03:45:24;5.68;;;3.80;;
52035;SDS011;38046;49.448;32.074;2023-05-10T03:47:50;4.80;;;3.60;;
52035;SDS011;38046;49.448;32.074;2023-05-10T03:50:16;5.28;;;3.60;;
52035;SDS011;38046;49.448;32.074;2023-05-10T03:52:42;4.32;;;3.45;;
52035;SDS011;38046;49.448;32.074;2023-05-10T03:55:08;4.20;;;3.20;;
52035;SDS011;38046;49.448;32.074;2023-05-10T03:57:34;4.43;;;3.47;;
52035;SDS011;38046;49.448;32.074;2023-05-10T04:00:00;6.00;;;3.80;;
52035;SDS011;38046;49.448;32.074;2023-05-10T04:02:26;5.65;;;3.50;;
52035;SDS011;38046;49.448;32.074;2023-05-10T04:04:51;6.30;;;3.88;;
52035;SDS011;38046;49.448;32.074;2023-05-10T04:07:17;5.43;;;3.60;;
52035;SDS011;38046;49.448;32.074;2023-05-10T04:09:43;5.20;;;3.55;;
52035;SDS011;38046;49.448;32.074;2023-05-10T04:12:08;5.40;;;3.55;;
52035;SDS011;38046;49.448;32.074;2023-05-10T04:14:34;5.85;;;3.60;;
52035;SDS011;38046;49.448;32.074;2023-05-10T04:17:00;4.03;;;3.38;;
52035;SDS011;38046;49.448;32.074;2023-05-10T04:19:31;4.80;;;3.40;;
52035;SDS011;38046;49.448;32.074;2023-05-10T04:21:57;5.97;;;3.53;;
52035;SDS011;38046;49.448;32.074;2023-05-10T04:24:23;5.80;;;3.50;;
52035;SDS011;38046;49.448;32.074;2023-05-10T04:26:49;3.83;;;3.05;;
52035;SDS011;38046;49.448;32.074;2023-05-10T04:29:15;5.35;;;3.33;;
52035;SDS011;38046;49.448;32.074;2023-05-10T04:31:41;5.13;;;3.47;;
52035;SDS011;38046;49.448;32.074;2023-05-10T04:34:07;5.05;;;3.05;;
52035;SDS011;38046;49.448;32.074;2023-05-10T04:36:32;4.63;;;3.08;;
52035;SDS011;38046;49.448;32.074;2023-05-10T04:39:00;3.83;;;3.15;;
52035;SDS011;38046;49.448;32.074;2023-05-10T04:41:27;4.28;;;3.20;;
52035;SDS011;38046;49.448;32.074;2023-05-10T04:43:53;4.90;;;2.80;;
52035;SDS011;38046;49.448;32.074;2023-05-10T04:46:19;5.68;;;3.58;;
52035;SDS011;38046;49.448;32.074;2023-05-10T04:48:44;4.97;;;3.28;;
52035;SDS011;38046;49.448;32.074;2023-05-10T04:51:10;4.60;;;3.45;;
52035;SDS011;38046;49.448;32.074;2023-05-10T04:53:36;4.90;;;3.10;;
52035;SDS011;38046;49.448;32.074;2023-05-10T04:56:02;4.22;;;3.15;;
52035;SDS011;38046;49.448;32.074;2023-05-10T04:58:27;4.45;;;3.05;;
52035;SDS011;38046;49.448;32.074;2023-05-10T05:00:53;5.22;;;3.40;;
52035;SDS011;38046;49.448;32.074;2023-05-10T05:03:19;5.93;;;3.90;;
52035;SDS011;38046;49.448;32.074;2023-05-10T05:05:44;12.55;;;3.30;;
52035;SDS011;38046;49.448;32.074;2023-05-10T05:08:10;3.97;;;3.10;;
52035;SDS011;38046;49.448;32.074;2023-05-10T05:10:36;6.05;;;3.60;;
52035;SDS011;38046;49.448;32.074;2023-05-10T05:13:01;5.80;;;3.85;;
52035;SDS011;38046;49.448;32.074;2023-05-10T05:15:27;4.75;;;3.20;;
52035;SDS011;38046;49.448;32.074;2023-05-10T05:17:53;4.90;;;3.40;;
52035;SDS011;38046;49.448;32.074;2023-05-10T05:20:18;5.03;;;3.70;;
52035;SDS011;38046;49.448;32.074;2023-05-10T05:22:44;5.50;;;3.88;;
52035;SDS011;38046;49.448;32.074;2023-05-10T05:25:09;5.18;;;3.30;;
52035;SDS011;38046;49.448;32.074;2023-05-10T05:27:36;4.35;;;3.38;;
52035;SDS011;38046;49.448;32.074;2023-05-10T05:30:02;5.10;;;3.53;;
52035;SDS011;38046;49.448;32.074;2023-05-10T05:32:29;4.22;;;3.15;;
52035;SDS011;38046;49.448;32.074;2023-05-10T05:34:55;5.07;;;3.20;;
52035;SDS011;38046;49.448;32.074;2023-05-10T05:37:21;4.75;;;3.20;;
52035;SDS011;38046;49.448;32.074;2023-05-10T05:39:47;5.28;;;3.75;;
52035;SDS011;38046;49.448;32.074;2023-05-10T05:42:13;4.93;;;3.22;;
52035;SDS011;38046;49.448;32.074;2023-05-10T05:44:41;4.35;;;3.40;;
52035;SDS011;38046;49.448;32.074;2023-05-10T05:47:06;3.92;;;3.30;;
52035;SDS011;38046;49.448;32.074;2023-05-10T05:49:32;4.50;;;3.15;;
52035;SDS011;38046;49.448;32.074;2023-05-10T05:51:58;4.13;;;3.28;;
52035;SDS011;38046;49.448;32.074;2023-05-10T05:54:25;4.15;;;3.33;;
52035;SDS011;38046;49.448;32.074;2023-05-10T05:56:53;4.05;;;3.10;;
52035;SDS011;38046;49.448;32.074;2023-05-10T05:59:20;3.13;;;2.83;;
52035;SDS011;38046;49.448;32.074;2023-05-10T06:01:46;3.85;;;3.25;;
52035;SDS011;38046;49.448;32.074;2023-05-10T06:04:11;3.30;;;2.80;;
52035;SDS011;38046;49.448;32.074;2023-05-10T06:06:37;3.25;;;2.78;;
52035;SDS011;38046;49.448;32.074;2023-05-10T06:09:03;3.90;;;3.08;;
52035;SDS011;38046;49.448;32.074;2023-05-10T06:11:29;4.78;;;3.38;;
52035;SDS011;38046;49.448;32.074;2023-05-10T06:13:57;3.75;;;2.83;;
52035;SDS011;38046;49.448;32.074;2023-05-10T06:16:23;3.55;;;3.22;;
52035;SDS011;38046;49.448;32.074;2023-05-10T06:18:48;5.50;;;3.10;;
52035;SDS011;38046;49.448;32.074;2023-05-10T06:21:14;3.95;;;2.97;;
52035;SDS011;38046;49.448;32.074;2023-05-10T06:23:41;4.80;;;3.28;;
52035;SDS011;38046;49.448;32.074;2023-05-10T06:26:07;5.40;;;3.15;;
52035;SDS011;38046;49.448;32.074;2023-05-10T06:28:32;4.97;;;3.72;;
52035;SDS011;38046;49.448;32.074;2023-05-10T06:30:58;4.35;;;2.90;;
52035;SDS011;38046;49.448;32.074;2023-05-10T06:33:24;4.07;;;3.20;;
52035;SDS011;38046;49.448;32.074;2023-05-10T06:35:50;3.67;;;3.25;;
52035;SDS011;38046;49.448;32.074;2023-05-10T06:38:16;3.72;;;2.90;;
52035;SDS011;38046;49.448;32.074;2023-05-10T06:40:42;4.43;;;3.38;;
52035;SDS011;38046;49.448;32.074;2023-05-10T06:43:08;4.53;;;2.97;;
52035;SDS011;38046;49.448;32.074;2023-05-10T06:45:34;3.78;;;2.72;;
52035;SDS011;38046;49.448;32.074;2023-05-10T06:47:59;3.97;;;2.95;;
52035;SDS011;38046;49.448;32.074;2023-05-10T06:50:25;4.57;;;3.00;;
52035;SDS011;38046;49.448;32.074;2023-05-10T06:52:51;3.72;;;2.90;;
52035;SDS011;38046;49.448;32.074;2023-05-10T06:55:17;5.10;;;3.30;;
52035;SDS011;38046;49.448;32.074;2023-05-10T06:57:43;5.57;;;3.25;;
52035;SDS011;38046;49.448;32.074;2023-05-10T07:00:08;4.20;;;2.90;;
52035;SDS011;38046;49.448;32.074;2023-05-10T07:02:35;3.72;;;2.70;;
52035;SDS011;38046;49.448;32.074;2023-05-10T07:05:01;3.67;;;2.97;;
52035;SDS011;38046;49.448;32.074;2023-05-10T07:07:27;3.35;;;3.00;;
52035;SDS011;38046;49.448;32.074;2023-05-10T07:09:53;3.85;;;3.05;;
52035;SDS011;38046;49.448;32.074;2023-05-10T07:12:18;5.18;;;3.17;;
52035;SDS011;38046;49.448;32.074;2023-05-10T07:14:44;4.32;;;3.17;;
52035;SDS011;38046;49.448;32.074;2023-05-10T07:17:10;3.85;;;3.03;;
52035;SDS011;38046;49.448;32.074;2023-05-10T07:19:36;4.85;;;3.47;;
52035;SDS011;38046;49.448;32.074;2023-05-10T07:22:02;6.25;;;3.20;;
52035;SDS011;38046;49.448;32.074;2023-05-10T07:24:27;4.35;;;3.35;;
52035;SDS011;38046;49.448;32.074;2023-05-10T07:26:53;3.40;;;2.80;;
52035;SDS011;38046;49.448;32.074;2023-05-10T07:29:19;4.95;;;2.72;;
52035;SDS011;38046;49.448;32.074;2023-05-10T07:31:45;2.70;;;2.50;;
52035;SDS011;38046;49.448;32.074;2023-05-10T07:34:10;3.40;;;2.83;;
52035;SDS011;38046;49.448;32.074;2023-05-10T07:36:36;3.22;;;2.58;;
52035;SDS011;38046;49.448;32.074;2023-05-10T07:39:02;2.83;;;2.30;;
52035;SDS011;38046;49.448;32.074;2023-05-10T07:41:27;2.97;;;2.55;;
52035;SDS011;38046;49.448;32.074;2023-05-10T07:43:54;4.70;;;2.67;;
52035;SDS011;38046;49.448;32.074;2023-05-10T07:46:19;4.72;;;2.92;;
52035;SDS011;38046;49.448;32.074;2023-05-10T07:48:45;3.08;;;2.65;;
52035;SDS011;38046;49.448;32.074;2023-05-10T07:51:11;3.13;;;2.55;;
52035;SDS011;38046;49.448;32.074;2023-05-10T07:53:37;2.30;;;2.10;;
52035;SDS011;38046;49.448;32.074;2023-05-10T07:56:19;2.25;;;2.05;;
52035;SDS011;38046;49.448;32.074;2023-05-10T07:58:47;2.90;;;2.42;;
52035;SDS011;38046;49.448;32.074;2023-05-10T08:01:12;3.28;;;2.63;;
52035;SDS011;38046;49.448;32.074;2023-05-10T08:03:38;4.82;;;2.85;;
52035;SDS011;38046;49.448;32.074;2023-05-10T08:06:04;3.67;;;2.40;;
52035;SDS011;38046;49.448;32.074;2023-05-10T08:08:29;3.28;;;2.40;;
52035;SDS011;38046;49.448;32.074;2023-05-10T08:10:55;3.42;;;2.30;;
52035;SDS011;38046;49.448;32.074;2023-05-10T08:13:21;2.95;;;2.30;;
52035;SDS011;38046;49.448;32.074;2023-05-10T08:15:46;2.97;;;2.55;;
52035;SDS011;38046;49.448;32.074;2023-05-10T08:18:12;2.00;;;1.90;;
52035;SDS011;38046;49.448;32.074;2023-05-10T08:20:38;2.90;;;2.30;;
52035;SDS011;38046;49.448;32.074;2023-05-10T08:23:04;2.50;;;2.20;;
52035;SDS011;38046;49.448;32.074;2023-05-10T08:25:29;2.83;;;2.40;;
52035;SDS011;38046;49.448;32.074;2023-05-10T08:27:56;3.10;;;2.42;;
52035;SDS011;38046;49.448;32.074;2023-05-10T08:30:22;2.67;;;1.90;;
52035;SDS011;38046;49.448;32.074;2023-05-10T08:32:47;2.65;;;2.00;;
52035;SDS011;38046;49.448;32.074;2023-05-10T08:35:13;3.78;;;2.30;;
52035;SDS011;38046;49.448;32.074;2023-05-10T08:37:39;5.35;;;2.70;;
52035;SDS011;38046;49.448;32.074;2023-05-10T08:40:04;2.63;;;2.42;;
52035;SDS011;38046;49.448;32.074;2023-05-10T08:42:30;2.47;;;2.17;;
52035;SDS011;38046;49.448;32.074;2023-05-10T08:44:59;3.83;;;2.40;;
52035;SDS011;38046;49.448;32.074;2023-05-10T08:47:27;3.25;;;2.20;;
52035;SDS011;38046;49.448;32.074;2023-05-10T08:49:54;3.22;;;2.13;;
52035;SDS011;38046;49.448;32.074;2023-05-10T08:52:20;2.67;;;2.10;;
52035;SDS011;38046;49.448;32.074;2023-05-10T08:54:48;3.85;;;1.95;;
52035;SDS011;38046;49.448;32.074;2023-05-10T08:57:14;2.95;;;2.15;;
52035;SDS011;38046;49.448;32.074;2023-05-10T08:59:39;2.17;;;2.08;;
52035;SDS011;38046;49.448;32.074;2023-05-10T09:02:05;4.63;;;2.33;;
52035;SDS011;38046;49.448;32.074;2023-05-10T09:04:34;2.10;;;1.92;;
52035;SDS011;38046;49.448;32.074;2023-05-10T09:07:00;2.40;;;2.20;;
52035;SDS011;38046;49.448;32.074;2023-05-10T09:09:26;2.42;;;2.20;;
52035;SDS011;38046;49.448;32.074;2023-05-10T09:11:52;3.75;;;2.20;;
52035;SDS011;38046;49.448;32.074;2023-05-10T09:14:19;2.22;;;2.00;;
52035;SDS011;38046;49.448;32.074;2023-05-10T09:16:45;2.20;;;2.00;;
52035;SDS011;38046;49.448;32.074;2023-05-10T09:19:11;2.58;;;1.95;;
52035;SDS011;38046;49.448;32.074;2023-05-10T09:21:37;3.45;;;2.60;;
52035;SDS011;38046;49.448;32.074;2023-05-10T09:24:06;3.28;;;2.60;;
52035;SDS011;38046;49.448;32.074;2023-05-10T09:26:33;2.33;;;2.08;;
52035;SDS011;38046;49.448;32.074;2023-05-10T09:29:00;2.17;;;1.92;;
52035;SDS011;38046;49.448;32.074;2023-05-10T09:31:44;1.75;;;1.65;;
52035;SDS011;38046;49.448;32.074;2023-05-10T09:34:15;3.92;;;2.13;;
52035;SDS011;38046;49.448;32.074;2023-05-10T09:39:35;2.65;;;2.00;;
52035;SDS011;38046;49.448;32.074;2023-05-10T09:42:02;1.70;;;1.60;;
52035;SDS011;38046;49.448;32.074;2023-05-10T09:44:33;2.65;;;2.00;;
52035;SDS011;38046;49.448;32.074;2023-05-10T09:47:00;3.08;;;1.95;;
52035;SDS011;38046;49.448;32.074;2023-05-10T09:49:29;2.15;;;1.95;;
52035;SDS011;38046;49.448;32.074;2023-05-10T09:52:01;2.70;;;2.00;;
52035;SDS011;38046;49.448;32.074;2023-05-10T09:54:29;2.40;;;2.00;;
52035;SDS011;38046;49.448;32.074;2023-05-10T09:56:55;1.70;;;1.60;;
52035;SDS011;38046;49.448;32.074;2023-05-10T09:59:21;2.20;;;1.95;;
52035;SDS011;38046;49.448;32.074;2023-05-10T10:01:50;2.20;;;2.00;;
52035;SDS011;38046;49.448;32.074;2023-05-10T10:04:16;2.85;;;2.35;;
52035;SDS011;38046;49.448;32.074;2023-05-10T10:06:42;2.10;;;1.90;;
52035;SDS011;38046;49.448;32.074;2023-05-10T10:09:08;2.15;;;1.60;;
52035;SDS011;38046;49.448;32.074;2023-05-10T10:11:35;1.75;;;1.65;;
52035;SDS011;38046;49.448;32.074;2023-05-10T10:14:01;1.80;;;1.70;;
52035;SDS011;38046;49.448;32.074;2023-05-10T10:16:28;3.22;;;2.10;;
52035;SDS011;38046;49.448;32.074;2023-05-10T10:18:55;2.08;;;1.88;;
52035;SDS011;38046;49.448;32.074;2023-05-10T10:21:21;2.30;;;2.10;;
52035;SDS011;38046;49.448;32.074;2023-05-10T10:23:48;2.25;;;2.05;;
52035;SDS011;38046;49.448;32.074;2023-05-10T10:26:14;2.10;;;1.90;;
52035;SDS011;38046;49.448;32.074;2023-05-10T10:28:56;1.70;;;1.60;;
52035;SDS011;38046;49.448;32.074;2023-05-10T10:31:39;2.63;;;1.98;;
52035;SDS011;38046;49.448;32.074;2023-05-10T10:34:10;1.65;;;1.55;;
52035;SDS011;38046;49.448;32.074;2023-05-10T10:36:45;2.25;;;1.50;;
52035;SDS011;38046;49.448;32.074;2023-05-10T10:39:14;2.10;;;1.90;;
52035;SDS011;38046;49.448;32.074;2023-05-10T10:41:53;2.08;;;1.90;;
52035;SDS011;38046;49.448;32.074;2023-05-10T10:44:24;1.80;;;1.70;;
52035;SDS011;38046;49.448;32.074;2023-05-10T10:47:01;1.80;;;1.70;;
52035;SDS011;38046;49.448;32.074;2023-05-10T10:49:31;1.60;;;1.50;;
52035;SDS011;38046;49.448;32.074;2023-05-10T10:52:41;2.42;;;1.65;;
52035;SDS011;38046;49.448;32.074;2023-05-10T10:57:48;1.83;;;1.55;;
52035;SDS011;38046;49.448;32.074;2023-05-10T11:16:09;1.70;;;1.60;;
52035;SDS011;38046;49.448;32.074;2023-05-10T11:18:35;1.92;;;1.58;;
52035;SDS011;38046;49.448;32.074;2023-05-10T11:21:02;2.20;;;2.00;;
52035;SDS011;38046;49.448;32.074;2023-05-10T11:23:47;3.92;;;2.13;;
52035;SDS011;38046;49.448;32.074;2023-05-10T11:26:33;1.95;;;1.65;;
52035;SDS011;38046;49.448;32.074;2023-05-10T11:29:00;2.45;;;1.90;;
52035;SDS011;38046;49.448;32.074;2023-05-10T11:31:27;1.83;;;1.73;;
52035;SDS011;38046;49.448;32.074;2023-05-10T11:33:54;1.88;;;1.77;;
52035;SDS011;38046;49.448;32.074;2023-05-10T11:36:23;1.77;;;1.52;;
52035;SDS011;38046;49.448;32.074;2023-05-10T11:38:54;2.55;;;1.83;;
52035;SDS011;38046;49.448;32.074;2023-05-10T11:41:21;2.63;;;1.80;;
52035;SDS011;38046;49.448;32.074;2023-05-10T11:43:49;2.00;;;1.88;;
52035;SDS011;38046;49.448;32.074;2023-05-10T11:46:16;1.98;;;1.58;;
52035;SDS011;38046;49.448;32.074;2023-05-10T11:48:45;2.10;;;1.90;;
52035;SDS011;38046;49.448;32.074;2023-05-10T11:51:12;1.67;;;1.58;;
52035;SDS011;38046;49.448;32.074;2023-05-10T11:53:37;3.20;;;1.80;;
52035;SDS011;38046;49.448;32.074;2023-05-10T11:58:36;2.47;;;1.80;;
52035;SDS011;38046;49.448;32.074;2023-05-10T12:01:03;3.08;;;2.10;;
52035;SDS011;38046;49.448;32.074;2023-05-10T12:03:30;3.58;;;1.80;;
52035;SDS011;38046;49.448;32.074;2023-05-10T12:05:57;3.00;;;1.85;;
52035;SDS011;38046;49.448;32.074;2023-05-10T12:08:24;2.83;;;2.33;;
52035;SDS011;38046;49.448;32.074;2023-05-10T12:10:51;2.00;;;1.80;;
52035;SDS011;38046;49.448;32.074;2023-05-10T12:13:19;2.03;;;1.90;;
52035;SDS011;38046;49.448;32.074;2023-05-10T12:15:46;4.25;;;2.10;;
52035;SDS011;38046;49.448;32.074;2023-05-10T12:18:12;1.73;;;1.63;;
52035;SDS011;38046;49.448;32.074;2023-05-10T12:20:39;1.98;;;1.88;;
52035;SDS011;38046;49.448;32.074;2023-05-10T12:23:04;2.47;;;1.92;;
52035;SDS011;38046;49.448;32.074;2023-05-10T12:25:34;2.55;;;2.28;;
52035;SDS011;38046;49.448;32.074;2023-05-10T12:28:06;1.80;;;1.70;;
52035;SDS011;38046;49.448;32.074;2023-05-10T12:30:33;2.35;;;2.00;;
52035;SDS011;38046;49.448;32.074;2023-05-10T12:33:10;2.05;;;1.65;;
52035;SDS011;38046;49.448;32.074;2023-05-10T12:40:54;2.90;;;2.20;;
52035;SDS011;38046;49.448;32.074;2023-05-10T12:43:21;2.25;;;2.00;;
52035;SDS011;38046;49.448;32.074;2023-05-10T12:45:47;2.20;;;2.00;;
52035;SDS011;38046;49.448;32.074;2023-05-10T12:48:14;2.45;;;1.95;;
52035;SDS011;38046;49.448;32.074;2023-05-10T12:50:40;2.00;;;1.85;;
52035;SDS011;38046;49.448;32.074;2023-05-10T12:53:06;1.95;;;1.75;;
52035;SDS011;38046;49.448;32.074;2023-05-10T12:55:31;1.70;;;1.60;;
52035;SDS011;38046;49.448;32.074;2023-05-10T12:57:57;1.70;;;1.60;;
52035;SDS011;38046;49.448;32.074;2023-05-10T13:00:26;1.60;;;1.50;;
52035;SDS011;38046;49.448;32.074;2023-05-10T13:02:52;2.22;;;1.88;;
52035;SDS011;38046;49.448;32.074;2023-05-10T13:05:18;1.77;;;1.65;;
52035;SDS011;38046;49.448;32.074;2023-05-10T13:07:44;2.13;;;1.83;;
52035;SDS011;38046;49.448;32.074;2023-05-10T13:10:10;1.85;;;1.75;;
52035;SDS011;38046;49.448;32.074;2023-05-10T13:12:36;1.75;;;1.50;;
52035;SDS011;38046;49.448;32.074;2023-05-10T13:15:02;1.60;;;1.50;;
52035;SDS011;38046;49.448;32.074;2023-05-10T13:17:28;1.73;;;1.63;;
52035;SDS011;38046;49.448;32.074;2023-05-10T13:19:54;1.60;;;1.48;;
52035;SDS011;38046;49.448;32.074;2023-05-10T13:22:20;1.58;;;1.48;;
52035;SDS011;38046;49.448;32.074;2023-05-10T13:24:45;1.77;;;1.67;;
52035;SDS011;38046;49.448;32.074;2023-05-10T13:27:11;1.48;;;1.38;;
52035;SDS011;38046;49.448;32.074;2023-05-10T13:29:37;1.98;;;1.77;;
52035;SDS011;38046;49.448;32.074;2023-05-10T13:32:02;2.00;;;1.80;;
52035;SDS011;38046;49.448;32.074;2023-05-10T13:34:28;1.92;;;1.83;;
52035;SDS011;38046;49.448;32.074;2023-05-10T13:36:54;1.67;;;1.58;;
52035;SDS011;38046;49.448;32.074;2023-05-10T13:39:21;1.75;;;1.65;;
52035;SDS011;38046;49.448;32.074;2023-05-10T13:41:47;1.60;;;1.50;;
52035;SDS011;38046;49.448;32.074;2023-05-10T13:44:13;2.40;;;1.77;;
52035;SDS011;38046;49.448;32.074;2023-05-10T13:46:39;2.05;;;1.85;;
52035;SDS011;38046;49.448;32.074;2023-05-10T13:49:06;2.00;;;1.65;;
52035;SDS011;38046;49.448;32.074;2023-05-10T13:51:32;1.63;;;1.52;;
52035;SDS011;38046;49.448;32.074;2023-05-10T13:53:58;1.70;;;1.60;;
52035;SDS011;38046;49.448;32.074;2023-05-10T13:56:24;2.08;;;1.70;;
52035;SDS011;38046;49.448;32.074;2023-05-10T13:58:50;1.80;;;1.70;;
52035;SDS011;38046;49.448;32.074;2023-05-10T14:01:16;1.88;;;1.77;;
52035;SDS011;38046;49.448;32.074;2023-05-10T14:03:41;3.08;;;1.70;;
52035;SDS011;38046;49.448;32.074;2023-05-10T14:06:07;2.45;;;1.67;;
52035;SDS011;38046;49.448;32.074;2023-05-10T14:08:34;1.80;;;1.70;;
52035;SDS011;38046;49.448;32.074;2023-05-10T14:11:00;1.75;;;1.65;;
52035;SDS011;38046;49.448;32.074;2023-05-10T14:13:26;1.70;;;1.60;;
52035;SDS011;38046;49.448;32.074;2023-05-10T14:15:52;1.70;;;1.60;;
52035;SDS011;38046;49.448;32.074;2023-05-10T14:18:18;1.90;;;1.35;;
52035;SDS011;38046;49.448;32.074;2023-05-10T14:20:44;2.38;;;1.63;;
52035;SDS011;38046;49.448;32.074;2023-05-10T14:23:10;1.63;;;1.55;;
52035;SDS011;38046;49.448;32.074;2023-05-10T14:25:36;1.95;;;1.67;;
52035;SDS011;38046;49.448;32.074;2023-05-10T14:28:03;2.35;;;1.42;;
52035;SDS011;38046;49.448;32.074;2023-05-10T14:30:28;1.40;;;1.30;;
52035;SDS011;38046;49.448;32.074;2023-05-10T14:32:54;1.77;;;1.42;;
52035;SDS011;38046;49.448;32.074;2023-05-10T14:35:20;1.75;;;1.65;;
52035;SDS011;38046;49.448;32.074;2023-05-10T14:37:46;2.13;;;1.98;;
52035;SDS011;38046;49.448;32.074;2023-05-10T14:40:12;2.58;;;1.77;;
52035;SDS011;38046;49.448;32.074;2023-05-10T14:42:37;2.45;;;1.90;;
52035;SDS011;38046;49.448;32.074;2023-05-10T14:45:03;1.52;;;1.42;;
52035;SDS011;38046;49.448;32.074;2023-05-10T14:47:29;2.22;;;1.90;;
52035;SDS011;38046;49.448;32.074;2023-05-10T14:49:55;2.05;;;1.85;;
52035;SDS011;38046;49.448;32.074;2023-05-10T14:52:21;2.17;;;1.73;;
52035;SDS011;38046;49.448;32.074;2023-05-10T14:54:47;1.88;;;1.77;;
52035;SDS011;38046;49.448;32.074;2023-05-10T14:57:12;2.05;;;1.83;;
52035;SDS011;38046;49.448;32.074;2023-05-10T14:59:38;4.03;;;2.20;;
52035;SDS011;38046;49.448;32.074;2023-05-10T15:02:04;2.10;;;1.90;;
52035;SDS011;38046;49.448;32.074;2023-05-10T15:04:31;3.75;;;2.40;;
52035;SDS011;38046;49.448;32.074;2023-05-10T15:06:57;3.92;;;2.28;;
52035;SDS011;38046;49.448;32.074;2023-05-10T15:09:24;2.45;;;2.10;;
52035;SDS011;38046;49.448;32.074;2023-05-10T15:11:50;2.60;;;2.10;;
52035;SDS011;38046;49.448;32.074;2023-05-10T15:14:16;2.20;;;2.00;;
52035;SDS011;38046;49.448;32.074;2023-05-10T15:16:41;6.20;;;2.33;;
52035;SDS011;38046;49.448;32.074;2023-05-10T15:19:07;3.30;;;2.50;;
52035;SDS011;38046;49.448;32.074;2023-05-10T15:21:33;3.15;;;2.53;;
52035;SDS011;38046;49.448;32.074;2023-05-10T15:24:04;3.40;;;2.40;;